JLY7650 SBGL-SBFL
Flight info
| Callsign | JLY7650 |
|---|---|
| Flight time | 1h 20m |
| Altitude | 34000 |
| Route | BITAK UN857 EGDED |
| Aircraft | A320/M-SDE3FGHIRWY/LB1 |
Departure
| Time | 2026-05-07 22:20 |
|---|---|
| Airport | Rio Galeão – Tom Jobim International Airport (SBGL) |
Arrival
| Time | 2026-05-07 23:41 |
|---|---|
| Airport | Hercílio Luz International Airport (SBFL) |
| Time | Latitude | Longitude | Altitude | Speed | Heading |
|---|---|---|---|---|---|
| 2026-05-07 22:04 | -22.81104 | -43.25314 | 26 ft | 0 kts | 76° |
| 2026-05-07 22:11 | -22.81108 | -43.25329 | 26 ft | 4 kts | 71° |
| 2026-05-07 22:11 | -22.81119 | -43.25356 | 26 ft | 4 kts | 50° |
| 2026-05-07 22:11 | -22.81138 | -43.25371 | 26 ft | 4 kts | 359° |
| 2026-05-07 22:11 | -22.81149 | -43.25369 | 26 ft | 1 kts | 344° |
| 2026-05-07 22:15 | -22.81147 | -43.25370 | 26 ft | 3 kts | 344° |
| 2026-05-07 22:15 | -22.81098 | -43.25381 | 26 ft | 12 kts | 353° |
| 2026-05-07 22:16 | -22.81005 | -43.25381 | 26 ft | 14 kts | 10° |
| 2026-05-07 22:16 | -22.80943 | -43.25435 | 26 ft | 12 kts | 294° |
| 2026-05-07 22:16 | -22.80911 | -43.25511 | 26 ft | 10 kts | 295° |
| 2026-05-07 22:16 | -22.80882 | -43.25578 | 26 ft | 9 kts | 296° |
| 2026-05-07 22:17 | -22.80833 | -43.25584 | 26 ft | 8 kts | 11° |
| 2026-05-07 22:17 | -22.80766 | -43.25540 | 26 ft | 13 kts | 34° |
| 2026-05-07 22:17 | -22.80687 | -43.25478 | 26 ft | 15 kts | 35° |
| 2026-05-07 22:17 | -22.80598 | -43.25407 | 26 ft | 17 kts | 39° |
| 2026-05-07 22:18 | -22.80492 | -43.25392 | 26 ft | 18 kts | 327° |
| 2026-05-07 22:18 | -22.80341 | -43.25490 | 26 ft | 7 kts | 326° |
| 2026-05-07 22:18 | -22.80300 | -43.25513 | 26 ft | 6 kts | 342° |
| 2026-05-07 22:19 | -22.80261 | -43.25512 | 26 ft | 6 kts | 11° |
| 2026-05-07 22:19 | -22.80206 | -43.25490 | 26 ft | 11 kts | 13° |
| 2026-05-07 22:19 | -22.80162 | -43.25429 | 26 ft | 10 kts | 74° |
| 2026-05-07 22:19 | -22.80161 | -43.25426 | 26 ft | 2 kts | 73° |
| 2026-05-07 22:20 | -22.80082 | -43.25122 | 27 ft | 79 kts | 74° |
| 2026-05-07 22:20 | -22.79878 | -43.24330 | 27 ft | 137 kts | 74° |
| 2026-05-07 22:20 | -22.79579 | -43.23179 | 174 ft | 169 kts | 74° |
| 2026-05-07 22:20 | -22.79279 | -43.21985 | 909 ft | 162 kts | 76° |
| 2026-05-07 22:21 | -22.79018 | -43.20808 | 1623 ft | 159 kts | 76° |
| 2026-05-07 22:21 | -22.78764 | -43.19599 | 2048 ft | 175 kts | 75° |
| 2026-05-07 22:21 | -22.78473 | -43.18229 | 2341 ft | 198 kts | 75° |
| 2026-05-07 22:21 | -22.78141 | -43.16686 | 2631 ft | 223 kts | 75° |
| 2026-05-07 22:22 | -22.77776 | -43.14986 | 3182 ft | 237 kts | 75° |
| 2026-05-07 22:22 | -22.77529 | -43.13826 | 3676 ft | 241 kts | 75° |
| 2026-05-07 22:22 | -22.77149 | -43.12039 | 4519 ft | 245 kts | 74° |
| 2026-05-07 22:22 | -22.76765 | -43.10219 | 5302 ft | 250 kts | 73° |
| 2026-05-07 22:23 | -22.76374 | -43.08364 | 6089 ft | 254 kts | 73° |
| 2026-05-07 22:23 | -22.75975 | -43.06482 | 6858 ft | 259 kts | 73° |
| 2026-05-07 22:23 | -22.75863 | -43.04493 | 7472 ft | 278 kts | 95° |
| 2026-05-07 22:23 | -22.76601 | -43.02484 | 7995 ft | 299 kts | 125° |
| 2026-05-07 22:24 | -22.78210 | -43.01027 | 8745 ft | 307 kts | 155° |
| 2026-05-07 22:24 | -22.80300 | -43.00589 | 9525 ft | 311 kts | 186° |
| 2026-05-07 22:24 | -22.82317 | -43.01299 | 10204 ft | 314 kts | 212° |
| 2026-05-07 22:24 | -22.84211 | -43.02644 | 10414 ft | 337 kts | 217° |
| 2026-05-07 22:25 | -22.86189 | -43.04172 | 10593 ft | 360 kts | 218° |
| 2026-05-07 22:25 | -22.88270 | -43.05823 | 10721 ft | 381 kts | 218° |
| 2026-05-07 22:25 | -22.90468 | -43.07569 | 10888 ft | 400 kts | 218° |
| 2026-05-07 22:25 | -22.92745 | -43.09361 | 11366 ft | 407 kts | 217° |
| 2026-05-07 22:26 | -22.95058 | -43.11162 | 11953 ft | 411 kts | 217° |
| 2026-05-07 22:26 | -22.97401 | -43.12968 | 12520 ft | 414 kts | 216° |
| 2026-05-07 22:26 | -22.99773 | -43.14787 | 13114 ft | 418 kts | 216° |
| 2026-05-07 22:26 | -23.02155 | -43.16614 | 13690 ft | 421 kts | 216° |
| 2026-05-07 22:27 | -23.04566 | -43.18467 | 14190 ft | 425 kts | 216° |
| 2026-05-07 22:27 | -23.06952 | -43.20305 | 14711 ft | 427 kts | 216° |
| 2026-05-07 22:27 | -23.09385 | -43.22179 | 15245 ft | 430 kts | 216° |
| 2026-05-07 22:27 | -23.11829 | -43.24064 | 15721 ft | 433 kts | 216° |
| 2026-05-07 22:28 | -23.14297 | -43.25966 | 16218 ft | 436 kts | 215° |
| 2026-05-07 22:28 | -23.16779 | -43.27881 | 16736 ft | 437 kts | 215° |
| 2026-05-07 22:28 | -23.19262 | -43.29803 | 17231 ft | 439 kts | 215° |
| 2026-05-07 22:28 | -23.21757 | -43.31737 | 17691 ft | 442 kts | 215° |
| 2026-05-07 22:29 | -23.24266 | -43.33682 | 18170 ft | 444 kts | 215° |
| 2026-05-07 22:29 | -23.26787 | -43.35633 | 18584 ft | 445 kts | 215° |
| 2026-05-07 22:29 | -23.29313 | -43.37588 | 18987 ft | 446 kts | 215° |
| 2026-05-07 22:29 | -23.31839 | -43.39545 | 19395 ft | 446 kts | 216° |
| 2026-05-07 22:30 | -23.34368 | -43.41510 | 19807 ft | 447 kts | 216° |
| 2026-05-07 22:30 | -23.36901 | -43.43480 | 20190 ft | 448 kts | 216° |
| 2026-05-07 22:30 | -23.39436 | -43.45449 | 20574 ft | 448 kts | 216° |
| 2026-05-07 22:30 | -23.41981 | -43.47426 | 20953 ft | 449 kts | 216° |
| 2026-05-07 22:31 | -23.44522 | -43.49399 | 21311 ft | 450 kts | 216° |
| 2026-05-07 22:31 | -23.47071 | -43.51381 | 21672 ft | 450 kts | 217° |
| 2026-05-07 22:31 | -23.49612 | -43.53357 | 22076 ft | 449 kts | 217° |
| 2026-05-07 22:31 | -23.52155 | -43.55338 | 22375 ft | 450 kts | 217° |
| 2026-05-07 22:32 | -23.54712 | -43.57323 | 22680 ft | 451 kts | 217° |
| 2026-05-07 22:32 | -23.57215 | -43.59265 | 23790 ft | 432 kts | 217° |
| 2026-05-07 22:32 | -23.59611 | -43.61125 | 24865 ft | 413 kts | 217° |
| 2026-05-07 22:32 | -23.61889 | -43.62901 | 26080 ft | 389 kts | 218° |
| 2026-05-07 22:33 | -23.63887 | -43.64712 | 27575 ft | 358 kts | 225° |
| 2026-05-07 22:33 | -23.65595 | -43.66550 | 28993 ft | 334 kts | 226° |
| 2026-05-07 22:33 | -23.67229 | -43.68312 | 29690 ft | 330 kts | 226° |
| 2026-05-07 22:33 | -23.68888 | -43.70098 | 29838 ft | 340 kts | 226° |
| 2026-05-07 22:34 | -23.70598 | -43.71935 | 30013 ft | 348 kts | 226° |
| 2026-05-07 22:34 | -23.72309 | -43.73772 | 30357 ft | 349 kts | 226° |
| 2026-05-07 22:34 | -23.74022 | -43.75605 | 31148 ft | 338 kts | 226° |
| 2026-05-07 22:34 | -23.75723 | -43.77429 | 31250 ft | 347 kts | 226° |
| 2026-05-07 22:35 | -23.77447 | -43.79281 | 31374 ft | 356 kts | 226° |
| 2026-05-07 22:35 | -23.79256 | -43.81227 | 31499 ft | 365 kts | 226° |
| 2026-05-07 22:35 | -23.81063 | -43.83171 | 31613 ft | 373 kts | 226° |
| 2026-05-07 22:35 | -23.82928 | -43.85179 | 31777 ft | 379 kts | 226° |
| 2026-05-07 22:36 | -23.84810 | -43.87210 | 32101 ft | 381 kts | 225° |
| 2026-05-07 22:36 | -23.86695 | -43.89240 | 32538 ft | 379 kts | 225° |
| 2026-05-07 22:36 | -23.88569 | -43.91258 | 32996 ft | 377 kts | 225° |
| 2026-05-07 22:36 | -23.90434 | -43.93267 | 33438 ft | 375 kts | 225° |
| 2026-05-07 22:37 | -23.92289 | -43.95262 | 33856 ft | 373 kts | 224° |
| 2026-05-07 22:37 | -23.94139 | -43.97254 | 33969 ft | 372 kts | 224° |
| 2026-05-07 22:37 | -23.95978 | -43.99239 | 33988 ft | 371 kts | 224° |
| 2026-05-07 22:38 | -23.99641 | -44.03203 | 33985 ft | 370 kts | 224° |
| 2026-05-07 22:38 | -24.03305 | -44.07168 | 33988 ft | 371 kts | 225° |
| 2026-05-07 22:39 | -24.06946 | -44.11105 | 33991 ft | 370 kts | 225° |
| 2026-05-07 22:39 | -24.10615 | -44.15071 | 33986 ft | 370 kts | 225° |
| 2026-05-07 22:40 | -24.14276 | -44.19031 | 33983 ft | 370 kts | 225° |
| 2026-05-07 22:40 | -24.17941 | -44.23001 | 33976 ft | 370 kts | 225° |
| 2026-05-07 22:41 | -24.21601 | -44.26983 | 33976 ft | 371 kts | 225° |
| 2026-05-07 22:41 | -24.25247 | -44.30951 | 33972 ft | 372 kts | 225° |
| 2026-05-07 22:42 | -24.28922 | -44.34945 | 33978 ft | 372 kts | 225° |
| 2026-05-07 22:42 | -24.32603 | -44.38941 | 33971 ft | 372 kts | 225° |
| 2026-05-07 22:43 | -24.36284 | -44.42950 | 33972 ft | 373 kts | 226° |
| 2026-05-07 22:43 | -24.39941 | -44.46950 | 33971 ft | 373 kts | 226° |
| 2026-05-07 22:44 | -24.43631 | -44.50969 | 33971 ft | 374 kts | 225° |
| 2026-05-07 22:44 | -24.47327 | -44.54999 | 33971 ft | 374 kts | 226° |
| 2026-05-07 22:45 | -24.51012 | -44.59046 | 33979 ft | 374 kts | 226° |
| 2026-05-07 22:45 | -24.54661 | -44.63117 | 33973 ft | 374 kts | 227° |
| 2026-05-07 22:46 | -24.58271 | -44.67171 | 33978 ft | 373 kts | 227° |
| 2026-05-07 22:46 | -24.61913 | -44.71248 | 33974 ft | 373 kts | 226° |
| 2026-05-07 22:47 | -24.65552 | -44.75320 | 33975 ft | 373 kts | 226° |
| 2026-05-07 22:47 | -24.69182 | -44.79391 | 33978 ft | 373 kts | 227° |
| 2026-05-07 22:48 | -24.72816 | -44.83468 | 33976 ft | 372 kts | 227° |
| 2026-05-07 22:48 | -24.76418 | -44.87505 | 33977 ft | 372 kts | 227° |
| 2026-05-07 22:49 | -24.80036 | -44.91569 | 33979 ft | 371 kts | 227° |
| 2026-05-07 22:49 | -24.83651 | -44.95637 | 33984 ft | 371 kts | 227° |
| 2026-05-07 22:50 | -24.87268 | -44.99703 | 33977 ft | 372 kts | 227° |
| 2026-05-07 22:50 | -24.90889 | -45.03776 | 33975 ft | 372 kts | 227° |
| 2026-05-07 22:51 | -24.94500 | -45.07855 | 33968 ft | 372 kts | 227° |
| 2026-05-07 22:51 | -24.98091 | -45.11910 | 33969 ft | 372 kts | 227° |
| 2026-05-07 22:52 | -25.01707 | -45.15984 | 33967 ft | 372 kts | 227° |
| 2026-05-07 22:52 | -25.05322 | -45.20063 | 33971 ft | 371 kts | 227° |
| 2026-05-07 22:53 | -25.08921 | -45.24141 | 33976 ft | 370 kts | 227° |
| 2026-05-07 22:53 | -25.12513 | -45.28210 | 33976 ft | 370 kts | 227° |
| 2026-05-07 22:54 | -25.16095 | -45.32273 | 33972 ft | 369 kts | 227° |
| 2026-05-07 22:54 | -25.19674 | -45.36337 | 33974 ft | 369 kts | 227° |
| 2026-05-07 22:55 | -25.23230 | -45.40371 | 33971 ft | 369 kts | 228° |
| 2026-05-07 22:55 | -25.26815 | -45.44448 | 33965 ft | 369 kts | 228° |
| 2026-05-07 22:56 | -25.30401 | -45.48522 | 33958 ft | 369 kts | 228° |
| 2026-05-07 22:56 | -25.33987 | -45.52596 | 33949 ft | 369 kts | 228° |
| 2026-05-07 22:57 | -25.37563 | -45.56676 | 33948 ft | 369 kts | 228° |
| 2026-05-07 22:57 | -25.41124 | -45.60741 | 33945 ft | 370 kts | 229° |
| 2026-05-07 22:58 | -25.44713 | -45.64841 | 33938 ft | 371 kts | 229° |
| 2026-05-07 22:58 | -25.48305 | -45.68941 | 33938 ft | 371 kts | 229° |
| 2026-05-07 22:59 | -25.51904 | -45.73047 | 33920 ft | 372 kts | 229° |
| 2026-05-07 22:59 | -25.55517 | -45.77184 | 33922 ft | 375 kts | 229° |
| 2026-05-07 23:00 | -25.59133 | -45.81332 | 33923 ft | 378 kts | 229° |
| 2026-05-07 23:00 | -25.62803 | -45.85542 | 33921 ft | 381 kts | 229° |
| 2026-05-07 23:01 | -25.66497 | -45.89788 | 33926 ft | 383 kts | 229° |
| 2026-05-07 23:01 | -25.70198 | -45.94050 | 33929 ft | 384 kts | 229° |
| 2026-05-07 23:02 | -25.73911 | -45.98323 | 33934 ft | 385 kts | 229° |
| 2026-05-07 23:02 | -25.77638 | -46.02614 | 33924 ft | 387 kts | 229° |
| 2026-05-07 23:03 | -25.81353 | -46.06892 | 33926 ft | 388 kts | 229° |
| 2026-05-07 23:03 | -25.85111 | -46.11213 | 33928 ft | 389 kts | 229° |
| 2026-05-07 23:04 | -25.88866 | -46.15545 | 33931 ft | 389 kts | 229° |
| 2026-05-07 23:04 | -25.92617 | -46.19890 | 33932 ft | 390 kts | 228° |
| 2026-05-07 23:05 | -25.96372 | -46.24249 | 33935 ft | 390 kts | 228° |
| 2026-05-07 23:05 | -26.00116 | -46.28585 | 33935 ft | 390 kts | 228° |
| 2026-05-07 23:06 | -26.03880 | -46.32934 | 33933 ft | 390 kts | 228° |
| 2026-05-07 23:06 | -26.07639 | -46.37298 | 33937 ft | 390 kts | 229° |
| 2026-05-07 23:07 | -26.11387 | -46.41662 | 33939 ft | 390 kts | 228° |
| 2026-05-07 23:07 | -26.15135 | -46.46021 | 33939 ft | 389 kts | 229° |
| 2026-05-07 23:08 | -26.18857 | -46.50360 | 33932 ft | 389 kts | 229° |
| 2026-05-07 23:08 | -26.22603 | -46.54709 | 33931 ft | 389 kts | 229° |
| 2026-05-07 23:09 | -26.26343 | -46.59067 | 33932 ft | 388 kts | 229° |
| 2026-05-07 23:09 | -26.30039 | -46.63387 | 33934 ft | 387 kts | 229° |
| 2026-05-07 23:10 | -26.33751 | -46.67736 | 33926 ft | 387 kts | 229° |
| 2026-05-07 23:10 | -26.37470 | -46.72089 | 33916 ft | 388 kts | 229° |
| 2026-05-07 23:11 | -26.41196 | -46.76448 | 33914 ft | 388 kts | 229° |
| 2026-05-07 23:11 | -26.44299 | -46.80085 | 33912 ft | 389 kts | 229° |
| 2026-05-07 23:12 | -26.48029 | -46.84465 | 33903 ft | 389 kts | 229° |
| 2026-05-07 23:12 | -26.51758 | -46.88839 | 33905 ft | 389 kts | 229° |
| 2026-05-07 23:13 | -26.55495 | -46.93229 | 33906 ft | 389 kts | 229° |
| 2026-05-07 23:13 | -26.59224 | -46.97626 | 33918 ft | 390 kts | 229° |
| 2026-05-07 23:14 | -26.62950 | -47.02023 | 33915 ft | 389 kts | 229° |
| 2026-05-07 23:14 | -26.66638 | -47.06397 | 33913 ft | 389 kts | 229° |
| 2026-05-07 23:15 | -26.70351 | -47.10806 | 33915 ft | 389 kts | 229° |
| 2026-05-07 23:15 | -26.74063 | -47.15215 | 33915 ft | 389 kts | 230° |
| 2026-05-07 23:16 | -26.77774 | -47.19637 | 33923 ft | 389 kts | 230° |
| 2026-05-07 23:16 | -26.81480 | -47.24061 | 33916 ft | 389 kts | 230° |
| 2026-05-07 23:17 | -26.85183 | -47.28488 | 33920 ft | 389 kts | 230° |
| 2026-05-07 23:17 | -26.88978 | -47.32826 | 33911 ft | 392 kts | 223° |
| 2026-05-07 23:18 | -26.93346 | -47.36450 | 33905 ft | 393 kts | 219° |
| 2026-05-07 23:18 | -26.97783 | -47.40040 | 33899 ft | 393 kts | 220° |
| 2026-05-07 23:19 | -27.02205 | -47.43639 | 33902 ft | 392 kts | 220° |
| 2026-05-07 23:19 | -27.06622 | -47.47232 | 33913 ft | 392 kts | 220° |
| 2026-05-07 23:20 | -27.11048 | -47.50841 | 33889 ft | 393 kts | 220° |
| 2026-05-07 23:20 | -27.15444 | -47.54432 | 33882 ft | 393 kts | 222° |
| 2026-05-07 23:21 | -27.19268 | -47.58711 | 33876 ft | 385 kts | 237° |
| 2026-05-07 23:21 | -27.22502 | -47.63522 | 33889 ft | 385 kts | 237° |
| 2026-05-07 23:22 | -27.25733 | -47.68315 | 33891 ft | 384 kts | 237° |
| 2026-05-07 23:22 | -27.28963 | -47.73106 | 33892 ft | 384 kts | 237° |
| 2026-05-07 23:23 | -27.32180 | -47.77891 | 33888 ft | 384 kts | 237° |
| 2026-05-07 23:23 | -27.35368 | -47.82646 | 33896 ft | 383 kts | 237° |
| 2026-05-07 23:24 | -27.38576 | -47.87422 | 33895 ft | 382 kts | 237° |
| 2026-05-07 23:24 | -27.41772 | -47.92194 | 33889 ft | 382 kts | 237° |
| 2026-05-07 23:24 | -27.43363 | -47.94580 | 33737 ft | 379 kts | 237° |
| 2026-05-07 23:25 | -27.44941 | -47.96947 | 32737 ft | 379 kts | 237° |
| 2026-05-07 23:25 | -27.46529 | -47.99329 | 31629 ft | 382 kts | 237° |
| 2026-05-07 23:25 | -27.48128 | -48.01731 | 30548 ft | 385 kts | 237° |
| 2026-05-07 23:25 | -27.49726 | -48.04127 | 29874 ft | 377 kts | 238° |
| 2026-05-07 23:26 | -27.51380 | -48.06414 | 28563 ft | 385 kts | 228° |
| 2026-05-07 23:26 | -27.53653 | -48.08192 | 26792 ft | 413 kts | 210° |
| 2026-05-07 23:26 | -27.56478 | -48.09157 | 24998 ft | 439 kts | 192° |
| 2026-05-07 23:26 | -27.59602 | -48.09136 | 23320 ft | 461 kts | 174° |
| 2026-05-07 23:27 | -27.65528 | -48.06151 | 19872 ft | 477 kts | 147° |
| 2026-05-07 23:27 | -27.68239 | -48.04002 | 18425 ft | 474 kts | 137° |
| 2026-05-07 23:27 | -27.70365 | -48.01238 | 17098 ft | 461 kts | 120° |
| 2026-05-07 23:28 | -27.71664 | -47.98012 | 15853 ft | 445 kts | 102° |
| 2026-05-07 23:28 | -27.72053 | -47.94629 | 14688 ft | 427 kts | 84° |
| 2026-05-07 23:28 | -27.71534 | -47.91415 | 13551 ft | 410 kts | 66° |
| 2026-05-07 23:28 | -27.70197 | -47.88661 | 12289 ft | 393 kts | 48° |
| 2026-05-07 23:29 | -27.68220 | -47.86638 | 11053 ft | 379 kts | 29° |
| 2026-05-07 23:29 | -27.65833 | -47.85548 | 9937 ft | 365 kts | 7° |
| 2026-05-07 23:29 | -27.63432 | -47.85609 | 9611 ft | 330 kts | 346° |
| 2026-05-07 23:29 | -27.61446 | -47.86618 | 9442 ft | 300 kts | 325° |
| 2026-05-07 23:30 | -27.60038 | -47.88177 | 9290 ft | 278 kts | 308° |
| 2026-05-07 23:30 | -27.59164 | -47.90073 | 8820 ft | 272 kts | 291° |
| 2026-05-07 23:30 | -27.58868 | -47.92179 | 8213 ft | 275 kts | 273° |
| 2026-05-07 23:30 | -27.59186 | -47.94315 | 8050 ft | 282 kts | 260° |
| 2026-05-07 23:31 | -27.59691 | -47.96456 | 7930 ft | 283 kts | 260° |
| 2026-05-07 23:31 | -27.60190 | -47.98594 | 7804 ft | 282 kts | 260° |
| 2026-05-07 23:31 | -27.60685 | -48.00729 | 7686 ft | 281 kts | 261° |
| 2026-05-07 23:31 | -27.61180 | -48.02864 | 7569 ft | 280 kts | 261° |
| 2026-05-07 23:32 | -27.61670 | -48.04990 | 7449 ft | 279 kts | 261° |
| 2026-05-07 23:32 | -27.62156 | -48.07103 | 7330 ft | 278 kts | 261° |
| 2026-05-07 23:32 | -27.62643 | -48.09212 | 7207 ft | 277 kts | 261° |
| 2026-05-07 23:32 | -27.63129 | -48.11314 | 7091 ft | 277 kts | 261° |
| 2026-05-07 23:33 | -27.63616 | -48.13410 | 6974 ft | 276 kts | 261° |
| 2026-05-07 23:33 | -27.64103 | -48.15507 | 6851 ft | 276 kts | 261° |
| 2026-05-07 23:33 | -27.64589 | -48.17596 | 6732 ft | 274 kts | 261° |
| 2026-05-07 23:33 | -27.65063 | -48.19619 | 6609 ft | 260 kts | 261° |
| 2026-05-07 23:34 | -27.65513 | -48.21547 | 6492 ft | 248 kts | 261° |
| 2026-05-07 23:34 | -27.65938 | -48.23380 | 6388 ft | 236 kts | 262° |
| 2026-05-07 23:34 | -27.66343 | -48.25134 | 6206 ft | 227 kts | 263° |
| 2026-05-07 23:34 | -27.66733 | -48.26843 | 5941 ft | 223 kts | 263° |
| 2026-05-07 23:35 | -27.67116 | -48.28524 | 5673 ft | 220 kts | 263° |
| 2026-05-07 23:35 | -27.67609 | -48.30140 | 5393 ft | 224 kts | 250° |
| 2026-05-07 23:35 | -27.68539 | -48.31584 | 5096 ft | 233 kts | 231° |
| 2026-05-07 23:35 | -27.69875 | -48.32683 | 4747 ft | 242 kts | 217° |
| 2026-05-07 23:36 | -27.71324 | -48.33659 | 4383 ft | 244 kts | 217° |
| 2026-05-07 23:36 | -27.72782 | -48.34650 | 4029 ft | 245 kts | 216° |
| 2026-05-07 23:36 | -27.74229 | -48.35677 | 3674 ft | 244 kts | 224° |
| 2026-05-07 23:36 | -27.75167 | -48.37162 | 3337 ft | 227 kts | 261° |
| 2026-05-07 23:37 | -27.75203 | -48.38851 | 3014 ft | 209 kts | 294° |
| 2026-05-07 23:37 | -27.74579 | -48.40261 | 2713 ft | 195 kts | 307° |
| 2026-05-07 23:37 | -27.73893 | -48.41535 | 2459 ft | 184 kts | 308° |
| 2026-05-07 23:37 | -27.73252 | -48.42730 | 2201 ft | 172 kts | 308° |
| 2026-05-07 23:38 | -27.72653 | -48.43850 | 1957 ft | 162 kts | 309° |
| 2026-05-07 23:38 | -27.72087 | -48.44902 | 1715 ft | 151 kts | 307° |
| 2026-05-07 23:38 | -27.71567 | -48.45871 | 1529 ft | 139 kts | 308° |
| 2026-05-07 23:38 | -27.71072 | -48.46790 | 1335 ft | 135 kts | 306° |
| 2026-05-07 23:39 | -27.70584 | -48.47693 | 1151 ft | 134 kts | 304° |
| 2026-05-07 23:39 | -27.70100 | -48.48590 | 976 ft | 134 kts | 304° |
| 2026-05-07 23:39 | -27.69620 | -48.49479 | 794 ft | 132 kts | 306° |
| 2026-05-07 23:39 | -27.69145 | -48.50379 | 618 ft | 135 kts | 305° |
| 2026-05-07 23:40 | -27.68656 | -48.51287 | 416 ft | 134 kts | 305° |
| 2026-05-07 23:40 | -27.68167 | -48.52173 | 237 ft | 132 kts | 305° |
| 2026-05-07 23:40 | -27.67681 | -48.53063 | 52 ft | 134 kts | 304° |
| 2026-05-07 23:40 | -27.67245 | -48.53869 | 22 ft | 94 kts | 301° |
| 2026-05-07 23:41 | -27.67059 | -48.54214 | 29 ft | 21 kts | 301° |
| 2026-05-07 23:41 | -27.66981 | -48.54361 | 30 ft | 24 kts | 301° |
| 2026-05-07 23:41 | -27.66889 | -48.54529 | 30 ft | 27 kts | 302° |
| 2026-05-07 23:41 | -27.66791 | -48.54712 | 27 ft | 23 kts | 301° |
| 2026-05-07 23:42 | -27.66713 | -48.54856 | 27 ft | 21 kts | 301° |
| 2026-05-07 23:42 | -27.66634 | -48.55002 | 29 ft | 22 kts | 301° |
| 2026-05-07 23:42 | -27.66625 | -48.55138 | 28 ft | 18 kts | 194° |
| 2026-05-07 23:42 | -27.66740 | -48.55115 | 28 ft | 16 kts | 160° |
| 2026-05-07 23:43 | -27.66814 | -48.55030 | 27 ft | 15 kts | 120° |
| 2026-05-07 23:43 | -27.66865 | -48.54935 | 27 ft | 14 kts | 121° |
| 2026-05-07 23:43 | -27.66912 | -48.54847 | 27 ft | 12 kts | 121° |
| 2026-05-07 23:43 | -27.66958 | -48.54761 | 27 ft | 16 kts | 121° |
| 2026-05-07 23:44 | -27.67012 | -48.54661 | 28 ft | 14 kts | 121° |
| 2026-05-07 23:44 | -27.67070 | -48.54592 | 29 ft | 10 kts | 181° |
| 2026-05-07 23:44 | -27.67130 | -48.54619 | 29 ft | 9 kts | 197° |
| 2026-05-07 23:44 | -27.67186 | -48.54608 | 29 ft | 8 kts | 148° |
| 2026-05-07 23:45 | -27.67221 | -48.54559 | 29 ft | 8 kts | 121° |
| 2026-05-07 23:45 | -27.67254 | -48.54526 | 29 ft | 6 kts | 190° |
| 2026-05-07 23:45 | -27.67285 | -48.54543 | 29 ft | 0 kts | 213° |